Time;durP1;ratioP1;P1;durP2;ratioP2;P2;SDS_P1;SDS_P2;PMS_P1;PMS_P2;Temp;Humidity;BMP_temperature;BMP_pressure;BME280_temperature;BME280_humidity;BME280_pressure;Samples;Min_cycle;Max_cycle;Signal;HPM_P1;HPM_P2
2022/08/05 00:01:16;;;;;;;0.00;0.00;;;20.00;99.90;;;;;;5089072;28;20051;-76
2022/08/05 00:03:42;;;;;;;0.00;0.00;;;20.10;99.90;;;;;;5095115;28;20031;-77
2022/08/05 00:06:09;;;;;;;0.00;0.00;;;20.30;99.90;;;;;;5096406;28;20457;-77
2022/08/05 00:08:36;;;;;;;0.00;0.00;;;20.20;99.90;;;;;;5093640;28;20028;-78
2022/08/05 00:11:11;;;;;;;0.00;0.00;;;20.30;99.90;;;;;;5080434;28;20038;-77
2022/08/05 00:13:39;;;;;;;0.00;0.00;;;20.20;99.90;;;;;;5086620;28;20386;-78
2022/08/05 00:16:08;;;;;;;0.00;0.00;;;20.20;99.90;;;;;;5084691;28;20031;-78
2022/08/05 00:18:38;;;;;;;0.00;0.00;;;20.20;99.90;;;;;;5089028;28;20039;-78
2022/08/05 00:21:05;;;;;;;0.00;0.00;;;20.30;99.90;;;;;;5081326;28;20037;-78
2022/08/05 00:23:31;;;;;;;0.00;0.00;;;20.20;99.90;;;;;;5094465;28;20032;-78
2022/08/05 00:25:58;;;;;;;0.00;0.00;;;20.20;99.90;;;;;;5104793;28;20048;-77
2022/08/05 00:28:24;;;;;;;0.00;0.00;;;20.30;99.90;;;;;;5093306;28;20032;-79
2022/08/05 00:30:50;;;;;;;0.15;0.15;;;20.20;99.90;;;;;;5088029;28;20482;-78
2022/08/05 00:33:16;;;;;;;0.00;0.00;;;20.30;99.90;;;;;;5092855;28;20423;-77
2022/08/05 00:35:42;;;;;;;0.00;0.00;;;20.50;99.90;;;;;;5094847;28;20545;-79
2022/08/05 00:38:08;;;;;;;0.00;0.00;;;20.60;99.90;;;;;;5094242;28;20044;-79
2022/08/05 00:40:49;;;;;;;0.00;0.00;;;20.60;99.90;;;;;;5091273;28;20070;-78
2022/08/05 00:43:16;;;;;;;0.00;0.00;;;20.80;99.90;;;;;;5101380;28;20039;-78
2022/08/05 00:45:43;;;;;;;0.00;0.00;;;20.90;99.90;;;;;;5087834;28;20025;-76
2022/08/05 00:48:15;;;;;;;0.00;0.00;;;20.90;99.90;;;;;;5088349;28;20032;-77
2022/08/05 00:50:44;;;;;;;0.00;0.00;;;21.20;99.90;;;;;;5086265;28;20062;-76
2022/08/05 00:53:10;;;;;;;0.00;0.00;;;21.40;99.90;;;;;;5082642;28;20467;-77
2022/08/05 00:55:37;;;;;;;0.00;0.00;;;21.90;99.90;;;;;;5087520;28;20066;-78
2022/08/05 00:58:03;;;;;;;0.00;0.00;;;22.30;99.90;;;;;;5085581;28;20067;-76
2022/08/05 01:00:30;;;;;;;0.00;0.00;;;22.90;99.90;;;;;;5085579;28;20039;-77
2022/08/05 01:02:57;;;;;;;0.00;0.00;;;23.50;99.90;;;;;;5091475;28;20032;-79
2022/08/05 01:05:25;;;;;;;0.00;0.00;;;24.20;99.90;;;;;;5096599;28;20052;-77
2022/08/05 01:07:51;;;;;;;0.10;0.10;;;24.70;98.20;;;;;;5095962;28;20027;-77
2022/08/05 01:10:31;;;;;;;0.00;0.00;;;24.90;96.30;;;;;;5093174;28;20028;-77
2022/08/05 01:13:07;;;;;;;0.00;0.00;;;25.30;95.10;;;;;;5090093;28;20028;-77
2022/08/05 01:15:38;;;;;;;0.00;0.00;;;25.60;90.50;;;;;;5076908;28;20037;-78
2022/08/05 01:18:09;;;;;;;0.00;0.00;;;26.00;83.50;;;;;;5089439;28;20040;-78
2022/08/05 01:21:13;;;;;;;0.00;0.00;;;26.00;78.80;;;;;;5086278;28;20518;-78
2022/08/05 01:23:56;;;;;;;0.00;0.00;;;26.10;78.60;;;;;;5082346;28;20028;-77
2022/08/05 01:26:44;;;;;;;0.00;0.00;;;26.30;73.80;;;;;;5090229;28;20051;-77
2022/08/05 01:29:15;;;;;;;0.00;0.00;;;26.50;72.10;;;;;;5080985;28;20032;-78
2022/08/05 01:31:47;;;;;;;0.00;0.00;;;26.80;70.80;;;;;;5085151;28;20028;-77
2022/08/05 01:34:26;;;;;;;0.00;0.00;;;27.00;68.50;;;;;;5082673;28;20066;-77
2022/08/05 01:37:02;;;;;;;0.00;0.00;;;27.30;67.40;;;;;;5089229;28;20052;-78
2022/08/05 01:39:30;;;;;;;0.00;0.00;;;27.60;66.30;;;;;;5085791;28;20085;-76
2022/08/05 01:41:58;;;;;;;0.00;0.00;;;27.60;64.10;;;;;;5092368;28;20035;-78
2022/08/05 01:44:28;;;;;;;0.00;0.00;;;27.90;61.90;;;;;;5081932;28;20040;-78
2022/08/05 01:46:56;;;;;;;0.10;0.10;;;28.10;60.50;;;;;;5092597;28;20118;-77
2022/08/05 01:49:26;;;;;;;0.00;0.00;;;28.10;58.70;;;;;;5090361;28;20028;-78
2022/08/05 01:51:59;;;;;;;0.00;0.00;;;28.10;59.60;;;;;;5090475;28;20039;-79
2022/08/05 01:54:35;;;;;;;1.50;1.48;;;27.50;58.20;;;;;;5087244;28;20068;-78
2022/08/05 01:57:03;;;;;;;0.00;0.00;;;27.60;58.80;;;;;;5091535;28;20394;-78
2022/08/05 01:59:32;;;;;;;0.00;0.00;;;27.40;59.20;;;;;;5095011;28;20028;-77
2022/08/05 02:02:00;;;;;;;0.00;0.00;;;27.30;58.60;;;;;;5085449;28;20490;-77
2022/08/05 02:04:28;;;;;;;0.00;0.00;;;27.60;58.00;;;;;;5091028;28;20127;-77
2022/08/05 02:06:59;;;;;;;0.00;0.00;;;27.60;58.60;;;;;;5092161;28;20047;-77
2022/08/05 02:09:26;;;;;;;0.03;0.03;;;28.60;57.00;;;;;;5087718;28;20032;-77
2022/08/05 02:11:58;;;;;;;0.00;0.00;;;29.40;54.70;;;;;;5085947;28;20086;-77
2022/08/05 02:14:32;;;;;;;0.00;0.00;;;30.20;53.80;;;;;;5087539;28;20394;-78
2022/08/05 02:17:06;;;;;;;0.15;0.15;;;30.20;53.10;;;;;;5088214;28;20126;-77
2022/08/05 02:19:36;;;;;;;0.85;0.85;;;29.90;53.40;;;;;;5094776;28;20047;-78
2022/08/05 02:22:14;;;;;;;0.00;0.00;;;30.20;52.70;;;;;;5084280;28;20047;-77
2022/08/05 02:24:45;;;;;;;2.83;0.43;;;31.40;50.50;;;;;;5079458;28;20490;-78
2022/08/05 02:27:12;;;;;;;0.17;0.17;;;32.30;48.60;;;;;;5083021;28;20043;-77
2022/08/05 02:29:42;;;;;;;0.00;0.00;;;31.70;48.80;;;;;;5089717;28;20514;-79
2022/08/05 02:32:10;;;;;;;0.22;0.22;;;30.70;48.90;;;;;;5080497;28;20034;-78
2022/08/05 02:34:36;;;;;;;0.00;0.00;;;30.70;50.50;;;;;;5079530;28;20036;-78
2022/08/05 02:37:05;;;;;;;0.00;0.00;;;31.30;49.50;;;;;;5083495;28;20064;-77
2022/08/05 02:39:37;;;;;;;0.00;0.00;;;31.40;48.90;;;;;;5087302;28;20386;-78
2022/08/05 02:42:05;;;;;;;0.00;0.00;;;31.80;48.50;;;;;;5085987;28;20044;-77
2022/08/05 02:44:35;;;;;;;0.10;0.10;;;32.10;47.70;;;;;;5088413;28;20031;-78
2022/08/05 02:47:04;;;;;;;0.03;0.03;;;32.50;46.20;;;;;;5084239;28;20043;-78
2022/08/05 02:49:43;;;;;;;0.00;0.00;;;30.90;48.60;;;;;;5078795;28;20036;-78
2022/08/05 02:52:14;;;;;;;0.00;0.00;;;31.10;48.10;;;;;;5083160;28;20698;-76
2022/08/05 02:54:42;;;;;;;0.15;0.15;;;31.50;47.70;;;;;;5077443;28;20079;-78
2022/08/05 02:57:13;;;;;;;0.08;0.08;;;32.00;46.40;;;;;;5082022;28;20107;-79
2022/08/05 02:59:50;;;;;;;0.10;0.10;;;32.20;46.20;;;;;;5084127;28;21242;-76
2022/08/05 03:02:21;;;;;;;0.00;0.00;;;31.60;47.20;;;;;;5063181;28;20028;-77
2022/08/05 03:04:50;;;;;;;0.00;0.00;;;32.10;46.80;;;;;;5074864;28;20126;-77
2022/08/05 03:07:18;;;;;;;0.00;0.00;;;32.10;46.10;;;;;;5075577;28;20040;-78
2022/08/05 03:09:45;;;;;;;0.70;0.30;;;31.40;47.00;;;;;;5077086;28;20148;-78
2022/08/05 03:12:32;;;;;;;2.13;0.30;;;31.50;47.00;;;;;;5071636;28;20498;-75
2022/08/05 03:14:58;;;;;;;0.00;0.00;;;32.00;46.60;;;;;;5072402;28;20075;-77
2022/08/05 03:17:25;;;;;;;0.00;0.00;;;32.10;46.40;;;;;;5079245;28;20040;-77
2022/08/05 03:19:51;;;;;;;0.10;0.10;;;32.40;46.20;;;;;;5082348;28;20379;-77
2022/08/05 03:22:17;;;;;;;0.00;0.00;;;32.90;46.10;;;;;;5082531;28;20036;-77
2022/08/05 03:24:44;;;;;;;0.10;0.10;;;32.80;46.10;;;;;;5080336;28;20044;-78
2022/08/05 03:27:12;;;;;;;0.00;0.00;;;31.50;46.90;;;;;;5077361;28;20044;-76
2022/08/05 03:29:39;;;;;;;0.22;0.22;;;32.00;47.70;;;;;;5076112;28;20035;-78
2022/08/05 03:32:08;;;;;;;0.00;0.00;;;32.50;46.70;;;;;;5074385;28;20529;-76
2022/08/05 03:34:34;;;;;;;5.07;2.70;;;32.50;46.60;;;;;;5073649;28;20040;-77
2022/08/05 03:37:02;;;;;;;2.92;1.35;;;32.30;46.50;;;;;;5079678;28;20036;-77
2022/08/05 03:39:28;;;;;;;0.10;0.10;;;30.20;50.00;;;;;;5081654;28;20119;-78
2022/08/05 03:41:55;;;;;;;0.00;0.00;;;29.10;52.90;;;;;;5088876;28;20120;-79
2022/08/05 03:44:22;;;;;;;0.52;0.52;;;29.10;53.00;;;;;;5081056;28;20036;-77
2022/08/05 03:46:48;;;;;;;0.00;0.00;;;28.90;53.30;;;;;;5081746;28;20036;-78
2022/08/05 03:49:14;;;;;;;0.00;0.00;;;28.60;54.00;;;;;;5076611;28;20067;-79
2022/08/05 03:52:02;;;;;;;0.10;0.10;;;28.40;54.60;;;;;;5076289;28;20060;-78
2022/08/05 03:54:55;;;;;;;0.00;0.00;;;28.50;54.40;;;;;;5079926;28;20490;-78
2022/08/05 03:57:28;;;;;;;1.30;0.82;;;28.50;54.20;;;;;;5079381;28;20034;-79
2022/08/05 04:00:11;;;;;;;0.10;0.10;;;28.40;54.60;;;;;;5082774;28;20504;-78
2022/08/05 04:02:39;;;;;;;0.93;0.90;;;28.00;55.50;;;;;;5080814;28;20047;-78
2022/08/05 04:05:08;;;;;;;0.00;0.00;;;28.20;55.40;;;;;;5082248;28;20397;-78
2022/08/05 04:07:35;;;;;;;0.20;0.20;;;28.10;55.70;;;;;;5082842;28;20047;-77
2022/08/05 04:10:02;;;;;;;0.00;0.00;;;28.00;55.90;;;;;;5086612;28;20118;-78
2022/08/05 04:12:28;;;;;;;0.00;0.00;;;27.90;56.20;;;;;;5082338;28;20335;-78
2022/08/05 04:14:55;;;;;;;0.00;0.00;;;28.10;56.10;;;;;;5083029;28;20044;-78
2022/08/05 04:17:21;;;;;;;0.00;0.00;;;27.70;56.40;;;;;;5082458;28;20115;-79
2022/08/05 04:19:48;;;;;;;0.00;0.00;;;27.80;56.90;;;;;;5078835;28;20086;-79
2022/08/05 04:22:14;;;;;;;0.00;0.00;;;27.80;56.00;;;;;;5078138;28;20043;-80
2022/08/05 04:24:42;;;;;;;0.00;0.00;;;27.30;56.60;;;;;;5078474;28;20173;-78
2022/08/05 04:27:08;;;;;;;0.10;0.10;;;27.40;58.20;;;;;;5081109;28;20051;-78
2022/08/05 04:29:35;;;;;;;0.00;0.00;;;27.80;57.70;;;;;;5078233;28;20530;-77
2022/08/05 04:32:01;;;;;;;0.22;0.20;;;28.00;57.00;;;;;;5078302;28;20032;-77
2022/08/05 04:34:27;;;;;;;1.13;1.13;;;27.90;56.10;;;;;;5078300;28;20043;-78
2022/08/05 04:36:53;;;;;;;0.00;0.00;;;27.50;58.70;;;;;;5080435;28;20134;-76
2022/08/05 04:39:20;;;;;;;0.28;0.28;;;27.50;59.40;;;;;;5074654;28;20407;-76
2022/08/05 04:41:47;;;;;;;0.00;0.00;;;27.90;58.80;;;;;;5074982;28;20039;-76
2022/08/05 04:44:14;;;;;;;7.50;6.82;;;27.80;59.20;;;;;;5084535;28;20040;-77
2022/08/05 04:46:40;;;;;;;0.00;0.00;;;28.00;57.80;;;;;;5082148;28;20138;-76
2022/08/05 04:49:07;;;;;;;0.40;0.30;;;27.50;58.70;;;;;;5075841;28;20119;-77
2022/08/05 04:51:33;;;;;;;0.00;0.00;;;27.30;58.50;;;;;;5077689;28;20376;-77
2022/08/05 04:53:59;;;;;;;0.20;0.20;;;27.20;58.90;;;;;;5085332;28;20051;-78
2022/08/05 04:56:25;;;;;;;0.77;0.20;;;27.30;58.80;;;;;;5081482;28;20047;-79
2022/08/05 04:58:52;;;;;;;0.10;0.10;;;27.50;57.20;;;;;;5080455;28;20047;-77
2022/08/05 05:01:18;;;;;;;5.00;3.00;;;27.20;56.40;;;;;;5080429;28;20036;-77
2022/08/05 05:03:44;;;;;;;0.25;0.25;;;27.30;57.70;;;;;;5076051;28;20036;-77
2022/08/05 05:06:11;;;;;;;0.00;0.00;;;27.50;57.50;;;;;;5081117;28;20107;-77
2022/08/05 05:08:38;;;;;;;0.00;0.00;;;27.80;58.40;;;;;;5081629;28;20032;-77
2022/08/05 05:11:04;;;;;;;0.30;0.30;;;27.60;59.60;;;;;;5084616;28;20084;-80
2022/08/05 05:13:31;;;;;;;1.38;0.68;;;27.80;60.50;;;;;;5077791;28;20086;-78
2022/08/05 05:15:57;;;;;;;0.32;0.20;;;27.60;58.80;;;;;;5074255;28;20494;-78
2022/08/05 05:18:24;;;;;;;0.00;0.00;;;27.50;58.70;;;;;;5080931;28;20036;-77
2022/08/05 05:20:50;;;;;;;0.03;0.03;;;27.40;58.20;;;;;;5077718;28;20502;-79
2022/08/05 05:23:16;;;;;;;0.17;0.17;;;27.30;58.70;;;;;;5082155;28;20036;-77
2022/08/05 05:25:43;;;;;;;0.00;0.00;;;27.70;58.60;;;;;;5075868;28;20416;-77
2022/08/05 05:28:11;;;;;;;2.10;2.00;;;28.00;56.10;;;;;;5075336;28;20040;-79
2022/08/05 05:30:38;;;;;;;0.00;0.00;;;28.10;56.10;;;;;;5079982;28;20046;-77
2022/08/05 05:33:06;;;;;;;0.00;0.00;;;28.10;55.30;;;;;;5076071;28;20111;-77
2022/08/05 05:35:33;;;;;;;0.28;0.20;;;28.10;55.90;;;;;;5073366;28;20052;-77
2022/08/05 05:38:01;;;;;;;0.00;0.00;;;28.30;55.80;;;;;;5070670;28;20040;-77
2022/08/05 05:40:29;;;;;;;0.20;0.20;;;28.60;56.40;;;;;;5078635;28;20057;-77
2022/08/05 05:42:56;;;;;;;0.00;0.00;;;28.80;56.60;;;;;;5082820;28;20048;-76
2022/08/05 05:45:22;;;;;;;0.30;0.25;;;28.90;55.80;;;;;;5087180;28;20063;-76
2022/08/05 05:47:49;;;;;;;0.03;0.03;;;28.30;55.50;;;;;;5082818;28;20040;-77
2022/08/05 05:50:17;;;;;;;0.00;0.00;;;28.40;56.40;;;;;;5085894;28;20066;-78
2022/08/05 05:52:43;;;;;;;0.00;0.00;;;28.50;56.20;;;;;;5081710;28;20028;-78
2022/08/05 05:55:12;;;;;;;2.38;2.28;;;28.50;56.50;;;;;;5081105;28;20120;-78
2022/08/05 05:57:40;;;;;;;0.00;0.00;;;28.40;57.40;;;;;;5086949;28;20029;-77
2022/08/05 06:00:13;;;;;;;0.88;0.57;;;28.40;57.00;;;;;;5079704;28;20028;-77
2022/08/05 06:02:39;;;;;;;0.00;0.00;;;28.10;56.60;;;;;;5084047;28;20527;-78
2022/08/05 06:05:12;;;;;;;0.00;0.00;;;28.30;57.20;;;;;;5076917;28;20119;-77
2022/08/05 06:07:38;;;;;;;0.75;0.47;;;27.90;58.30;;;;;;5076752;28;20088;-77
2022/08/05 06:10:05;;;;;;;1.77;0.30;;;27.80;59.50;;;;;;5077473;28;20751;-76
2022/08/05 06:12:33;;;;;;;0.03;0.00;;;28.10;58.00;;;;;;5080306;28;20055;-77
2022/08/05 06:15:04;;;;;;;0.00;0.00;;;28.30;56.80;;;;;;5081814;28;20079;-80
2022/08/05 06:17:30;;;;;;;0.22;0.22;;;28.10;56.50;;;;;;5080515;28;20082;-78
2022/08/05 06:19:57;;;;;;;0.00;0.00;;;28.60;55.70;;;;;;5086614;28;20105;-78
2022/08/05 06:22:26;;;;;;;0.00;0.00;;;28.50;56.50;;;;;;5077324;28;20040;-79
2022/08/05 06:24:52;;;;;;;0.00;0.00;;;28.70;54.40;;;;;;5079665;28;20124;-80
2022/08/05 06:27:18;;;;;;;0.10;0.00;;;28.70;54.80;;;;;;5077891;28;20103;-78
2022/08/05 06:29:44;;;;;;;0.80;0.80;;;28.20;54.40;;;;;;5077186;28;20562;-78
2022/08/05 06:32:12;;;;;;;1.42;1.27;;;27.90;55.60;;;;;;5073496;28;20494;-81
2022/08/05 06:34:38;;;;;;;0.10;0.00;;;28.10;56.80;;;;;;5077355;28;20063;-79
2022/08/05 06:37:04;;;;;;;2.17;1.05;;;28.40;55.10;;;;;;5076741;28;20126;-78
2022/08/05 06:39:30;;;;;;;0.00;0.00;;;28.50;53.70;;;;;;5074623;28;20047;-77
2022/08/05 06:41:57;;;;;;;0.00;0.00;;;28.10;54.90;;;;;;5078155;28;20063;-76
2022/08/05 06:44:23;;;;;;;0.00;0.00;;;28.10;55.90;;;;;;5086769;28;20040;-80
2022/08/05 06:46:49;;;;;;;0.00;0.00;;;28.20;55.10;;;;;;5095657;28;20127;-77
2022/08/05 06:49:16;;;;;;;0.05;0.05;;;28.20;55.90;;;;;;5087707;28;20040;-77
2022/08/05 06:51:42;;;;;;;0.30;0.20;;;28.40;55.90;;;;;;5087383;28;20514;-78
2022/08/05 06:54:08;;;;;;;0.00;0.00;;;28.30;54.40;;;;;;5081539;28;20028;-76
2022/08/05 06:56:34;;;;;;;0.30;0.30;;;28.60;54.00;;;;;;5080993;28;20086;-81
2022/08/05 06:59:01;;;;;;;2.08;1.98;;;28.80;53.20;;;;;;5083867;28;20378;-77
2022/08/05 07:01:27;;;;;;;0.47;0.45;;;28.60;52.90;;;;;;5051819;28;20090;-79
2022/08/05 07:03:53;;;;;;;0.00;0.00;;;28.60;53.00;;;;;;5083557;28;20028;-77
2022/08/05 07:06:19;;;;;;;0.00;0.00;;;28.60;53.30;;;;;;5083107;28;20036;-77
2022/08/05 07:08:45;;;;;;;0.00;0.00;;;28.40;53.40;;;;;;5078786;28;20135;-76
2022/08/05 07:11:11;;;;;;;0.00;0.00;;;28.80;53.50;;;;;;5076060;28;20112;-77
2022/08/05 07:19:07;;;;;;;0.00;0.00;;;30.00;51.30;;;;;;5074861;28;20061;-76
2022/08/05 07:21:33;;;;;;;0.00;0.00;;;29.60;49.70;;;;;;5072059;28;20487;-77
2022/08/05 07:23:59;;;;;;;0.47;0.45;;;30.00;49.40;;;;;;5075785;28;20043;-76
2022/08/05 07:26:25;;;;;;;0.00;0.00;;;29.80;49.40;;;;;;5078828;28;20543;-78
2022/08/05 07:28:51;;;;;;;0.52;0.20;;;30.10;50.00;;;;;;5079358;28;20297;-78
2022/08/05 07:31:18;;;;;;;3.92;3.63;;;30.40;49.60;;;;;;5080668;28;20081;-77
2022/08/05 07:33:44;;;;;;;0.00;0.00;;;30.60;48.20;;;;;;5084190;28;20032;-76
2022/08/05 07:36:10;;;;;;;0.00;0.00;;;30.40;48.20;;;;;;5086622;28;20039;-77
2022/08/05 07:38:37;;;;;;;0.00;0.00;;;30.40;49.20;;;;;;5077828;28;20066;-76
2022/08/05 07:41:08;;;;;;;0.00;0.00;;;29.90;49.40;;;;;;5083395;28;20503;-78
2022/08/05 07:43:34;;;;;;;0.00;0.00;;;30.10;50.30;;;;;;5090134;28;20043;-78
2022/08/05 07:46:01;;;;;;;0.65;0.65;;;30.10;50.60;;;;;;5083539;28;20079;-79
2022/08/05 07:48:27;;;;;;;2.15;1.20;;;29.50;50.90;;;;;;5080311;28;20422;-76
2022/08/05 07:50:53;;;;;;;0.10;0.05;;;29.00;51.00;;;;;;5083760;28;20040;-78
2022/08/05 07:53:19;;;;;;;0.00;0.00;;;29.00;51.50;;;;;;5086880;28;20466;-78
2022/08/05 07:55:45;;;;;;;0.00;0.00;;;28.90;50.70;;;;;;5080062;28;20032;-78
2022/08/05 07:58:11;;;;;;;0.00;0.00;;;28.90;51.60;;;;;;5087331;28;20435;-78
2022/08/05 08:00:37;;;;;;;0.00;0.00;;;29.30;50.20;;;;;;5088228;28;20043;-78
2022/08/05 08:03:08;;;;;;;0.00;0.00;;;29.40;48.90;;;;;;5096543;28;20119;-78
2022/08/05 08:05:34;;;;;;;0.00;0.00;;;29.50;49.20;;;;;;5079676;28;20025;-78
2022/08/05 08:08:00;;;;;;;0.00;0.00;;;29.20;50.60;;;;;;5081812;28;20066;-77
2022/08/05 08:10:27;;;;;;;0.00;0.00;;;29.70;50.90;;;;;;5078875;28;20032;-79
2022/08/05 08:12:53;;;;;;;0.00;0.00;;;30.10;49.20;;;;;;5084953;28;20032;-77
2022/08/05 08:15:19;;;;;;;0.00;0.00;;;30.30;48.90;;;;;;5086753;28;20035;-78
2022/08/05 08:17:46;;;;;;;0.00;0.00;;;30.40;48.60;;;;;;5081351;28;20066;-78
2022/08/05 08:20:12;;;;;;;0.00;0.00;;;30.60;47.50;;;;;;5084515;28;20501;-77
2022/08/05 08:22:38;;;;;;;0.00;0.00;;;31.00;47.70;;;;;;5088285;28;20082;-78
2022/08/05 08:25:05;;;;;;;0.00;0.00;;;31.20;47.10;;;;;;5081472;28;20045;-78
2022/08/05 08:27:31;;;;;;;0.10;0.10;;;30.50;47.50;;;;;;5087993;28;20067;-78
2022/08/05 08:29:58;;;;;;;0.00;0.00;;;30.70;48.20;;;;;;5077191;28;20036;-79
2022/08/05 08:32:24;;;;;;;0.30;0.30;;;30.70;47.60;;;;;;5080256;28;20032;-79
2022/08/05 08:34:50;;;;;;;1.95;1.85;;;30.50;47.90;;;;;;5073651;28;20039;-79
2022/08/05 08:37:17;;;;;;;0.32;0.32;;;30.20;48.50;;;;;;5077559;28;20059;-81
2022/08/05 08:39:43;;;;;;;0.00;0.00;;;30.60;48.10;;;;;;5078691;28;20036;-80
2022/08/05 08:42:10;;;;;;;5.82;1.38;;;30.20;48.30;;;;;;5081950;28;20032;-80
2022/08/05 08:44:36;;;;;;;0.00;0.00;;;30.30;47.70;;;;;;5079519;28;20387;-79
2022/08/05 08:47:04;;;;;;;0.57;0.22;;;30.60;48.20;;;;;;5087137;28;20555;-80
2022/08/05 08:49:33;;;;;;;0.00;0.00;;;30.40;47.00;;;;;;5081112;28;20028;-81
2022/08/05 08:52:11;;;;;;;0.00;0.00;;;29.70;47.90;;;;;;5082811;28;20039;-79
2022/08/05 08:54:37;;;;;;;0.00;0.00;;;29.80;48.50;;;;;;5080429;28;20028;-79
2022/08/05 08:57:06;;;;;;;0.08;0.08;;;30.00;48.30;;;;;;5076860;28;20039;-78
2022/08/05 08:59:33;;;;;;;0.00;0.00;;;30.10;47.90;;;;;;5078094;28;20398;-79
2022/08/05 09:02:03;;;;;;;0.10;0.10;;;30.20;47.90;;;;;;5079328;28;20036;-80
2022/08/05 09:04:29;;;;;;;4.85;4.55;;;30.20;48.40;;;;;;5079469;28;20481;-80
2022/08/05 09:06:55;;;;;;;0.25;0.25;;;29.80;48.90;;;;;;5080454;28;20071;-82
2022/08/05 09:09:21;;;;;;;0.00;0.00;;;29.60;49.20;;;;;;5081425;28;20028;-80
2022/08/05 09:11:47;;;;;;;0.13;0.13;;;29.50;49.70;;;;;;5087844;28;20103;-80
2022/08/05 09:14:13;;;;;;;0.00;0.00;;;29.10;50.40;;;;;;5085831;28;20049;-80
2022/08/05 09:16:40;;;;;;;0.00;0.00;;;29.20;50.30;;;;;;5084666;28;20042;-80
2022/08/05 09:19:07;;;;;;;0.00;0.00;;;28.90;51.50;;;;;;5067294;28;20128;-79
2022/08/05 09:21:34;;;;;;;0.00;0.00;;;28.70;51.50;;;;;;5081892;28;20032;-79
2022/08/05 09:24:07;;;;;;;0.40;0.17;;;29.10;51.70;;;;;;5084117;28;20062;-79
2022/08/05 09:26:35;;;;;;;0.00;0.00;;;29.50;50.20;;;;;;5070582;28;20127;-79
2022/08/05 09:29:07;;;;;;;0.15;0.10;;;30.00;50.20;;;;;;5085301;28;20036;-79
2022/08/05 09:31:33;;;;;;;0.08;0.08;;;30.10;48.30;;;;;;5087773;28;20135;-80
2022/08/05 09:34:03;;;;;;;0.00;0.00;;;30.00;49.40;;;;;;5073018;28;20512;-79
2022/08/05 09:36:51;;;;;;;0.10;0.10;;;30.10;49.20;;;;;;5082457;28;20040;-81
2022/08/05 09:39:19;;;;;;;0.00;0.00;;;30.10;48.10;;;;;;5081153;28;20450;-81
2022/08/05 09:41:59;;;;;;;1.20;1.10;;;29.80;48.40;;;;;;5077836;28;20538;-81
2022/08/05 09:44:39;;;;;;;0.00;0.00;;;29.70;48.50;;;;;;5083464;28;20059;-82
2022/08/05 09:47:16;;;;;;;0.00;0.00;;;29.40;48.50;;;;;;5084253;28;20077;-79
2022/08/05 09:49:54;;;;;;;0.00;0.00;;;29.30;49.30;;;;;;5086038;28;20411;-80
2022/08/05 09:52:32;;;;;;;0.00;0.00;;;29.50;48.70;;;;;;5085101;28;20421;-80
2022/08/05 09:55:10;;;;;;;0.00;0.00;;;29.50;48.60;;;;;;5086651;28;20088;-81
2022/08/05 09:57:40;;;;;;;0.00;0.00;;;29.80;49.30;;;;;;5085414;28;20036;-81
2022/08/05 10:00:17;;;;;;;0.00;0.00;;;29.90;48.60;;;;;;5086171;28;20044;-80
2022/08/05 10:02:48;;;;;;;0.00;0.00;;;29.70;48.70;;;;;;5082032;28;20037;-81
2022/08/05 10:05:27;;;;;;;0.00;0.00;;;29.90;48.60;;;;;;5086430;28;20032;-80
2022/08/05 10:07:57;;;;;;;0.22;0.13;;;29.80;50.10;;;;;;5081263;28;20690;-79
2022/08/05 10:10:26;;;;;;;0.40;0.40;;;29.60;51.00;;;;;;5077275;28;20036;-79
2022/08/05 10:12:55;;;;;;;0.05;0.05;;;29.60;50.70;;;;;;5078331;28;20129;-80
2022/08/05 10:15:23;;;;;;;0.20;0.20;;;29.40;50.60;;;;;;5084556;28;20054;-81
2022/08/05 10:18:21;;;;;;;0.45;0.17;;;29.60;51.40;;;;;;5085357;28;20043;-81
2022/08/05 10:20:48;;;;;;;0.90;0.60;;;29.40;49.80;;;;;;5088081;28;20035;-79
2022/08/05 10:23:26;;;;;;;0.10;0.08;;;29.40;50.50;;;;;;5081964;28;20051;-79
2022/08/05 10:26:01;;;;;;;0.20;0.17;;;29.00;50.70;;;;;;5083062;28;20048;-80
2022/08/05 10:28:28;;;;;;;3.08;2.95;;;29.00;50.90;;;;;;5087410;28;20089;-79
2022/08/05 10:30:55;;;;;;;0.00;0.00;;;28.80;50.60;;;;;;5086398;28;20077;-80
2022/08/05 10:33:22;;;;;;;0.10;0.10;;;28.80;50.90;;;;;;5059410;28;20059;-80
2022/08/05 10:35:52;;;;;;;0.10;0.10;;;28.80;50.50;;;;;;5083013;28;20032;-80
2022/08/05 10:38:23;;;;;;;0.00;0.00;;;29.10;51.40;;;;;;5077991;28;20123;-78
2022/08/05 10:40:50;;;;;;;0.08;0.08;;;29.20;50.80;;;;;;5080534;28;20370;-80
2022/08/05 10:43:23;;;;;;;0.35;0.35;;;29.40;50.90;;;;;;5082272;28;20578;-81
2022/08/05 10:46:09;;;;;;;0.63;0.63;;;29.40;50.60;;;;;;5082385;28;20619;-80
2022/08/05 10:48:38;;;;;;;0.00;0.00;;;29.10;50.70;;;;;;5088191;28;20131;-81
2022/08/05 10:51:10;;;;;;;0.73;0.73;;;29.20;50.80;;;;;;5078417;28;20166;-79
2022/08/05 10:53:58;;;;;;;0.00;0.00;;;29.30;50.40;;;;;;5079584;28;20494;-80
2022/08/05 10:56:30;;;;;;;0.00;0.00;;;29.40;50.70;;;;;;5078857;28;20048;-80
2022/08/05 10:58:59;;;;;;;0.00;0.00;;;29.40;49.90;;;;;;5087397;28;20351;-81
2022/08/05 11:01:36;;;;;;;0.65;0.55;;;29.60;50.50;;;;;;5084716;28;20513;-81
2022/08/05 11:04:02;;;;;;;0.00;0.00;;;29.60;50.00;;;;;;5087291;28;20064;-79
2022/08/05 11:06:28;;;;;;;0.00;0.00;;;29.60;50.20;;;;;;5082405;28;20025;-79
2022/08/05 11:09:17;;;;;;;0.00;0.00;;;29.70;49.90;;;;;;5089594;28;20052;-80
2022/08/05 11:11:46;;;;;;;0.00;0.00;;;29.90;49.70;;;;;;5087616;28;20032;-80
2022/08/05 11:14:12;;;;;;;0.00;0.00;;;30.00;49.80;;;;;;5087404;28;20039;-81
2022/08/05 11:16:39;;;;;;;0.00;0.00;;;30.00;49.80;;;;;;5088665;28;20069;-80
2022/08/05 11:19:28;;;;;;;0.00;0.00;;;30.00;49.80;;;;;;5067673;28;20040;-81
2022/08/05 11:21:56;;;;;;;0.00;0.00;;;30.00;49.20;;;;;;5078885;28;20043;-79
2022/08/05 11:24:22;;;;;;;0.00;0.00;;;30.00;49.00;;;;;;5084560;28;20072;-80
2022/08/05 11:26:50;;;;;;;0.00;0.00;;;30.00;49.10;;;;;;5082526;28;20080;-79
2022/08/05 11:29:58;;;;;;;0.38;0.38;;;30.10;48.90;;;;;;5088031;28;20548;-80
2022/08/05 11:32:26;;;;;;;0.30;0.30;;;30.10;48.40;;;;;;5055923;28;20032;-81
2022/08/05 11:34:53;;;;;;;1.05;1.05;;;30.10;48.60;;;;;;5085797;28;20040;-80
2022/08/05 11:37:53;;;;;;;0.00;0.00;;;29.70;48.60;;;;;;5086713;28;20040;-81
2022/08/05 11:40:19;;;;;;;0.00;0.00;;;29.90;48.70;;;;;;5088302;28;20032;-81
2022/08/05 11:42:46;;;;;;;0.00;0.00;;;29.90;48.50;;;;;;5080649;28;20111;-81
2022/08/05 11:45:12;;;;;;;0.00;0.00;;;29.90;48.20;;;;;;5078791;28;20778;-80
2022/08/05 11:47:38;;;;;;;0.20;0.20;;;29.90;48.20;;;;;;5087098;28;20036;-81
2022/08/05 11:50:05;;;;;;;0.00;0.00;;;29.90;48.60;;;;;;5080016;28;20024;-80
2022/08/05 11:52:31;;;;;;;0.00;0.00;;;29.80;48.40;;;;;;5080949;28;20377;-79
2022/08/05 11:54:58;;;;;;;0.03;0.03;;;29.80;48.60;;;;;;5077173;28;20047;-79
2022/08/05 11:57:30;;;;;;;0.00;0.00;;;29.70;48.80;;;;;;5082682;28;20040;-81
2022/08/05 11:59:57;;;;;;;0.20;0.10;;;29.70;49.20;;;;;;5082072;28;20699;-81
2022/08/05 12:02:32;;;;;;;0.00;0.00;;;29.60;49.90;;;;;;5078410;28;20033;-79
2022/08/05 12:05:00;;;;;;;0.20;0.20;;;29.50;50.30;;;;;;5086336;28;20124;-81
2022/08/05 12:07:33;;;;;;;1.10;1.00;;;29.60;50.60;;;;;;5084976;28;20032;-80
2022/08/05 12:10:01;;;;;;;0.20;0.20;;;29.60;51.00;;;;;;5083048;28;20123;-80
2022/08/05 12:12:28;;;;;;;0.00;0.00;;;29.70;50.80;;;;;;5086892;28;20030;-80
2022/08/05 12:14:54;;;;;;;0.10;0.05;;;29.80;50.90;;;;;;5066549;28;20055;-80
2022/08/05 12:17:21;;;;;;;0.00;0.00;;;29.80;50.90;;;;;;5080744;28;20032;-79
2022/08/05 12:19:49;;;;;;;0.00;0.00;;;29.80;51.60;;;;;;5081600;28;20081;-78
2022/08/05 12:22:18;;;;;;;0.00;0.00;;;29.70;51.70;;;;;;5080402;28;20039;-81
2022/08/05 12:24:46;;;;;;;1.00;1.00;;;29.60;51.30;;;;;;5083385;28;20466;-80
2022/08/05 12:27:27;;;;;;;0.00;0.00;;;29.70;50.70;;;;;;5080673;28;20082;-81
2022/08/05 12:30:10;;;;;;;0.00;0.00;;;29.70;51.00;;;;;;5077710;28;20040;-80
2022/08/05 12:32:50;;;;;;;0.00;0.00;;;29.80;50.90;;;;;;5089574;28;20079;-80
2022/08/05 12:35:17;;;;;;;0.00;0.00;;;29.50;51.40;;;;;;5087235;28;20047;-81
2022/08/05 12:37:45;;;;;;;0.00;0.00;;;29.50;51.30;;;;;;5080546;28;20032;-80
2022/08/05 12:40:12;;;;;;;0.00;0.00;;;29.20;52.00;;;;;;5080996;28;20339;-79
2022/08/05 12:42:39;;;;;;;0.00;0.00;;;29.20;52.00;;;;;;5078413;28;20054;-80
2022/08/05 12:45:07;;;;;;;0.00;0.00;;;29.20;51.50;;;;;;5082344;28;20049;-80
2022/08/05 12:47:33;;;;;;;0.00;0.00;;;29.30;51.20;;;;;;5074476;28;20032;-80
2022/08/05 12:50:00;;;;;;;0.00;0.00;;;29.30;51.30;;;;;;5091109;28;20381;-79
2022/08/05 12:52:27;;;;;;;0.00;0.00;;;29.20;51.90;;;;;;5092827;28;20066;-80
2022/08/05 12:54:53;;;;;;;0.45;0.38;;;29.10;51.40;;;;;;5087946;28;20039;-81
2022/08/05 12:57:20;;;;;;;0.00;0.00;;;29.00;51.50;;;;;;5087327;28;20037;-80
2022/08/05 12:59:54;;;;;;;0.00;0.00;;;28.80;52.90;;;;;;5091400;28;20032;-79
2022/08/05 13:02:25;;;;;;;0.30;0.30;;;28.80;52.60;;;;;;5079937;28;20111;-80
2022/08/05 13:04:53;;;;;;;1.95;1.58;;;28.80;54.10;;;;;;5080073;28;20032;-81